createdAt,value
2023-02-18T00:05:01.400Z,8.08
2023-02-18T00:10:04.888Z,8.07
2023-02-18T00:15:06.975Z,8.05
2023-02-18T00:20:09.032Z,8.05
2023-02-18T00:25:10.787Z,8.06
2023-02-18T00:30:12.722Z,8.05
2023-02-18T00:35:14.570Z,8.01
2023-02-18T00:40:20.380Z,8.01
2023-02-18T00:45:22.085Z,7.99
2023-02-18T00:50:23.817Z,7.96
2023-02-18T00:55:25.534Z,7.97
2023-02-18T01:00:27.212Z,7.97
2023-02-18T01:05:28.983Z,7.92
2023-02-18T01:10:30.982Z,7.89
2023-02-18T01:15:32.850Z,7.90
2023-02-18T01:20:36.058Z,7.89
2023-02-18T01:25:38.860Z,7.92
2023-02-18T01:30:43.264Z,7.85
2023-02-18T01:35:45.005Z,7.90
2023-02-18T01:40:51.538Z,7.88
2023-02-18T01:46:05.235Z,7.81
2023-02-18T01:51:27.257Z,7.84
2023-02-18T01:56:37.716Z,7.81
2023-02-18T02:01:43.703Z,7.83
2023-02-18T02:06:45.347Z,7.85
2023-02-18T02:12:14.719Z,7.88
2023-02-18T02:17:28.374Z,7.85
2023-02-18T02:22:51.491Z,7.91
2023-02-18T02:28:34.299Z,7.97
2023-02-18T02:34:04.190Z,8.03
2023-02-18T02:39:19.692Z,8.09
2023-02-18T02:44:45.906Z,8.17
2023-02-18T02:50:00.782Z,8.22
2023-02-18T02:55:08.396Z,8.21
2023-02-18T03:00:11.837Z,8.15
2023-02-18T03:05:39.284Z,8.17
2023-02-18T03:11:07.135Z,8.18
2023-02-18T03:16:19.090Z,8.28
2023-02-18T03:21:34.691Z,8.23
2023-02-18T03:26:42.206Z,8.16
2023-02-18T03:31:47.987Z,8.15
2023-02-18T03:36:49.840Z,8.18
2023-02-18T03:41:51.599Z,8.22
2023-02-18T03:46:53.862Z,8.14
2023-02-18T03:51:55.836Z,8.08
2023-02-18T03:56:57.442Z,8.06
2023-02-18T04:01:59.218Z,8.02
2023-02-18T04:07:00.903Z,8.00
2023-02-18T04:12:02.620Z,8.03
2023-02-18T04:17:04.411Z,7.97
2023-02-18T04:22:06.082Z,7.98
2023-02-18T04:27:07.704Z,7.91
2023-02-18T04:32:09.581Z,7.97
2023-02-18T04:37:11.175Z,7.92
2023-02-18T04:42:12.933Z,7.91
2023-02-18T04:47:14.633Z,7.99
2023-02-18T04:52:16.582Z,8.00
2023-02-18T04:57:18.424Z,7.93
2023-02-18T05:02:20.034Z,7.94
2023-02-18T05:07:21.672Z,7.91
2023-02-18T05:12:23.316Z,7.97
2023-02-18T05:17:24.942Z,7.95
2023-02-18T05:22:26.970Z,7.96
2023-02-18T05:27:28.635Z,7.95
2023-02-18T05:32:30.238Z,7.96
2023-02-18T05:37:31.955Z,8.02
2023-02-18T05:42:33.597Z,8.04
2023-02-18T05:47:35.251Z,8.04
2023-02-18T05:52:37.130Z,7.99
2023-02-18T05:57:39.061Z,8.07
2023-02-18T06:02:40.754Z,7.97
2023-02-18T06:07:42.416Z,7.99
2023-02-18T06:12:44.545Z,7.92
2023-02-18T06:17:46.208Z,7.97
2023-02-18T06:22:47.920Z,8.02
2023-02-18T06:27:49.536Z,8.02
2023-02-18T06:32:51.214Z,7.98
2023-02-18T06:37:52.914Z,8.01
2023-02-18T06:42:54.608Z,8.00
2023-02-18T06:47:56.173Z,8.02
2023-02-18T06:52:57.904Z,7.99
2023-02-18T06:57:59.677Z,7.88
2023-02-18T07:03:01.348Z,7.91
2023-02-18T07:08:03.133Z,7.94
2023-02-18T07:13:05.346Z,7.91
2023-02-18T07:18:07.209Z,7.82
2023-02-18T07:23:08.954Z,7.78
2023-02-18T07:28:10.808Z,7.75
2023-02-18T07:33:14.186Z,7.70
2023-02-18T07:38:15.810Z,7.67
2023-02-18T07:43:17.628Z,7.61
2023-02-18T07:48:19.303Z,7.70
2023-02-18T07:53:21.038Z,7.63
2023-02-18T07:58:25.252Z,7.58
2023-02-18T08:03:32.081Z,7.59
2023-02-18T08:08:36.609Z,7.61
2023-02-18T08:13:38.828Z,7.64
2023-02-18T08:18:40.471Z,7.58
2023-02-18T08:23:42.565Z,7.72
2023-02-18T08:28:45.652Z,7.73
2023-02-18T08:33:48.097Z,7.76
2023-02-18T08:38:49.868Z,7.80
2023-02-18T08:43:51.500Z,7.79
2023-02-18T08:48:53.105Z,7.84
2023-02-18T08:53:54.705Z,7.84
2023-02-18T08:58:56.383Z,7.93
2023-02-18T09:03:58.306Z,7.89
2023-02-18T09:09:00.098Z,7.95
2023-02-18T09:14:01.707Z,7.99
2023-02-18T09:19:03.439Z,8.06
2023-02-18T09:24:05.594Z,8.05
2023-02-18T09:29:07.289Z,8.11
2023-02-18T09:34:09.024Z,8.02
2023-02-18T09:39:12.964Z,8.01
2023-02-18T09:44:18.346Z,8.02
2023-02-18T09:49:25.215Z,8.07
2023-02-18T09:54:27.609Z,8.09
2023-02-18T09:59:31.428Z,8.05
2023-02-18T10:04:54.515Z,8.38
2023-02-18T10:10:01.667Z,8.55
2023-02-18T10:15:03.930Z,8.62
2023-02-18T10:20:08.423Z,8.44
2023-02-18T10:25:21.791Z,8.38
2023-02-18T10:30:57.385Z,8.37
2023-02-18T10:36:24.838Z,8.36
2023-02-18T10:42:09.613Z,8.32
2023-02-18T10:47:20.145Z,8.36
2023-02-18T10:52:21.901Z,8.39
2023-02-18T10:57:24.908Z,8.37
2023-02-18T11:02:32.532Z,8.38
2023-02-18T11:07:38.324Z,8.41
2023-02-18T11:12:49.637Z,8.67
2023-02-18T11:17:54.518Z,8.68
2023-02-18T11:23:08.175Z,8.88
2023-02-18T11:28:18.999Z,9.09
2023-02-18T11:33:26.937Z,9.29
2023-02-18T11:38:37.543Z,9.26
2023-02-18T11:43:46.212Z,9.30
2023-02-18T11:48:48.579Z,9.23
2023-02-18T11:54:03.835Z,9.34
2023-02-18T11:59:06.364Z,9.35
2023-02-18T12:04:17.231Z,9.28
2023-02-18T12:09:23.649Z,9.39
2023-02-18T12:14:25.473Z,9.59
2023-02-18T12:19:37.254Z,9.64
2023-02-18T12:24:45.122Z,9.53
2023-02-18T12:30:20.127Z,9.46
2023-02-18T12:35:40.478Z,9.39
2023-02-18T12:40:50.505Z,9.35
2023-02-18T12:45:59.625Z,9.31
2023-02-18T12:51:20.287Z,9.36
2023-02-18T12:56:59.445Z,9.35
2023-02-18T13:02:24.606Z,9.34
2023-02-18T13:07:35.131Z,9.38
2023-02-18T13:13:01.417Z,9.44
2023-02-18T13:18:09.630Z,9.52
2023-02-18T13:23:38.748Z,9.50
2023-02-18T13:28:52.381Z,9.42
2023-02-18T13:34:07.985Z,9.45
2023-02-18T13:39:19.326Z,9.47
2023-02-18T13:44:20.942Z,9.41
2023-02-18T13:49:26.061Z,9.45
2023-02-18T13:54:46.627Z,9.45
2023-02-18T13:59:57.238Z,9.43
2023-02-18T14:05:08.494Z,9.42
2023-02-18T14:10:13.166Z,9.50
2023-02-18T14:15:20.942Z,9.49
2023-02-18T14:20:22.586Z,9.41
2023-02-18T14:25:36.758Z,9.38
2023-02-18T14:30:42.322Z,9.38
2023-02-18T14:35:56.964Z,9.37
2023-02-18T14:41:22.977Z,9.22
2023-02-18T14:46:29.032Z,9.25
2023-02-18T14:51:33.508Z,9.08
2023-02-18T14:56:39.642Z,8.99
2023-02-18T15:01:41.450Z,9.04
2023-02-18T15:06:43.064Z,8.93
2023-02-18T15:12:01.334Z,8.92
2023-02-18T15:17:05.671Z,9.01
2023-02-18T15:22:17.170Z,9.08
2023-02-18T15:27:24.819Z,9.02
2023-02-18T15:32:28.869Z,8.99
2023-02-18T15:37:31.481Z,8.92
2023-02-18T15:42:37.643Z,8.90
2023-02-18T15:47:48.226Z,8.84
2023-02-18T15:52:51.791Z,8.80
2023-02-18T15:57:54.725Z,8.70
2023-02-18T16:03:03.874Z,8.66
2023-02-18T16:08:16.388Z,8.62
2023-02-18T16:13:18.693Z,8.58
2023-02-18T16:18:37.081Z,8.50
2023-02-18T16:24:04.168Z,8.43
2023-02-18T16:29:14.096Z,8.29
2023-02-18T16:34:17.877Z,8.38
2023-02-18T16:39:20.637Z,8.31
2023-02-18T16:44:22.298Z,8.38
2023-02-18T16:49:24.300Z,8.37
2023-02-18T16:54:28.514Z,8.40
2023-02-18T16:59:30.108Z,8.35
2023-02-18T17:04:31.930Z,8.33
2023-02-18T17:09:33.634Z,8.33
2023-02-18T17:14:35.319Z,8.32
2023-02-18T17:19:36.969Z,8.26
2023-02-18T17:24:38.589Z,8.25
2023-02-18T17:29:40.256Z,8.31
2023-02-18T17:34:41.950Z,8.35
2023-02-18T17:39:43.587Z,8.31
2023-02-18T17:44:45.231Z,8.32
2023-02-18T17:49:47.057Z,8.26
2023-02-18T17:54:48.863Z,8.30
2023-02-18T17:59:50.463Z,8.25
2023-02-18T18:04:52.040Z,8.19
2023-02-18T18:09:53.663Z,8.20
2023-02-18T18:14:55.300Z,8.06
2023-02-18T18:19:56.940Z,8.09
2023-02-18T18:24:58.597Z,8.10
2023-02-18T18:30:00.349Z,8.09
2023-02-18T18:35:02.016Z,8.09
2023-02-18T18:40:03.776Z,8.08
2023-02-18T18:45:05.941Z,8.07
2023-02-18T18:50:08.188Z,8.04
2023-02-18T18:55:37.988Z,8.06
2023-02-18T19:00:43.125Z,8.09
2023-02-18T19:05:45.972Z,8.11
2023-02-18T19:10:58.280Z,8.10
2023-02-18T19:16:22.737Z,8.15
2023-02-18T19:21:24.403Z,8.07
2023-02-18T19:26:26.040Z,8.12
2023-02-18T19:31:28.595Z,8.11
2023-02-18T19:36:30.603Z,8.12
2023-02-18T19:41:32.205Z,8.16
2023-02-18T19:46:33.890Z,8.21
2023-02-18T19:51:35.567Z,8.23
2023-02-18T19:56:37.433Z,8.31
2023-02-18T20:01:39.029Z,8.30
2023-02-18T20:06:40.874Z,8.30
2023-02-18T20:11:42.526Z,8.25
2023-02-18T20:16:44.220Z,8.22
2023-02-18T20:21:46.528Z,8.13
2023-02-18T20:26:48.176Z,8.08
2023-02-18T20:31:50.323Z,8.11
2023-02-18T20:36:53.237Z,8.05
2023-02-18T20:41:54.874Z,8.05
2023-02-18T20:46:56.537Z,8.06
2023-02-18T20:51:58.127Z,7.99
2023-02-18T20:56:59.754Z,7.95
2023-02-18T21:02:01.592Z,7.94
2023-02-18T21:07:03.429Z,7.93
2023-02-18T21:12:05.389Z,7.98
2023-02-18T21:17:08.577Z,7.93
2023-02-18T21:22:11.260Z,7.93
2023-02-18T21:27:12.844Z,7.92
2023-02-18T21:32:14.597Z,7.95
2023-02-18T21:37:16.275Z,7.99
2023-02-18T21:42:17.842Z,8.04
2023-02-18T21:47:19.485Z,7.98
2023-02-18T21:52:21.143Z,7.96
2023-02-18T21:57:22.786Z,7.89
2023-02-18T22:02:29.729Z,7.89
2023-02-18T22:07:31.454Z,7.90
2023-02-18T22:12:33.972Z,7.89
2023-02-18T22:17:35.632Z,7.96
2023-02-18T22:22:37.283Z,7.96
2023-02-18T22:27:40.981Z,7.97
2023-02-18T22:32:42.706Z,7.94
2023-02-18T22:37:44.358Z,7.99
2023-02-18T22:42:46.120Z,7.95
2023-02-18T22:47:47.751Z,7.96
2023-02-18T22:52:49.499Z,8.00
2023-02-18T22:57:51.095Z,8.04
2023-02-18T23:02:53.535Z,8.04
2023-02-18T23:07:56.662Z,8.02
2023-02-18T23:12:58.289Z,8.10
2023-02-18T23:17:59.902Z,8.06
2023-02-18T23:23:01.493Z,8.06
2023-02-18T23:28:05.383Z,8.08
2023-02-18T23:33:07.063Z,8.07
2023-02-18T23:38:09.209Z,8.06
2023-02-18T23:43:10.887Z,8.07
2023-02-18T23:48:12.506Z,8.08
2023-02-18T23:53:14.127Z,8.09
2023-02-18T23:58:15.707Z,8.06
